Time;durP1;ratioP1;P1;durP2;ratioP2;P2;SDS_P1;SDS_P2;PMS_P1;PMS_P2;Temp;Humidity;BMP_temperature;BMP_pressure;BME280_temperature;BME280_humidity;BME280_pressure;Samples;Min_cycle;Max_cycle;Signal;HPM_P1;HPM_P2
2023/05/21 00:07:53;;;;;;;18.92;11.63;;;15.50;99.90;;;;;;4845492;29;20057;-76
2023/05/21 00:23:31;;;;;;;14.75;9.57;;;16.30;99.90;;;;;;4853261;29;20042;-76
2023/05/21 00:25:59;;;;;;;17.35;9.80;;;16.30;99.90;;;;;;4829397;29;20062;-77
2023/05/21 00:28:27;;;;;;;21.30;9.45;;;16.30;99.90;;;;;;4888858;29;20049;-78
2023/05/21 00:31:54;;;;;;;18.17;9.75;;;16.30;99.90;;;;;;4881888;29;20105;-77
2023/05/21 00:35:22;;;;;;;13.77;8.93;;;16.50;99.90;;;;;;5073940;23;20169;-77
2023/05/21 00:38:13;;;;;;;14.52;8.45;;;16.40;99.90;;;;;;4878432;29;20056;-77
2023/05/21 00:40:47;;;;;;;16.00;9.00;;;16.50;99.90;;;;;;4887647;29;20044;-77
2023/05/21 00:43:14;;;;;;;12.68;8.93;;;16.50;99.90;;;;;;4891443;29;20052;-75
2023/05/21 00:45:48;;;;;;;21.17;10.50;;;16.50;99.90;;;;;;4912764;29;20111;-75
2023/05/21 00:49:11;;;;;;;16.38;8.40;;;16.50;99.90;;;;;;4882218;29;20045;-76
2023/05/21 01:01:02;;;;;;;17.42;9.02;;;16.50;99.90;;;;;;4878853;29;20097;-76
2023/05/21 01:03:36;;;;;;;15.90;9.68;;;16.50;99.90;;;;;;4858426;29;20045;-75
2023/05/21 01:06:19;;;;;;;14.63;9.80;;;16.50;99.90;;;;;;4864773;29;20056;-77
2023/05/21 01:08:49;;;;;;;15.27;10.07;;;16.40;99.90;;;;;;4862501;29;20046;-77
2023/05/21 01:11:39;;;;;;;13.00;8.95;;;16.40;99.90;;;;;;4836561;29;20054;-77
2023/05/21 01:14:15;;;;;;;12.20;8.63;;;16.10;99.90;;;;;;4849439;29;20509;-77
2023/05/21 01:17:27;;;;;;;11.73;8.38;;;15.90;99.90;;;;;;4856403;29;20072;-76
2023/05/21 01:19:57;;;;;;;12.25;8.68;;;16.00;99.90;;;;;;5062022;23;20507;-76
2023/05/21 01:22:51;;;;;;;13.48;9.05;;;16.30;99.90;;;;;;4892886;29;20148;-77
2023/05/21 01:26:08;;;;;;;13.73;9.38;;;16.20;99.90;;;;;;4882522;29;20124;-76
2023/05/21 01:28:36;;;;;;;13.32;9.05;;;16.20;99.90;;;;;;4874614;29;20091;-77
2023/05/21 01:31:19;;;;;;;12.27;8.70;;;16.20;99.90;;;;;;4880772;29;20056;-76
2023/05/21 01:34:10;;;;;;;14.40;9.00;;;16.20;99.90;;;;;;4884793;29;20086;-75
2023/05/21 01:37:56;;;;;;;;;;;;;;;;;;;;;
2023/05/21 01:41:02;;;;;;;365.48;200.30;;;16.20;99.90;;;;;;4867191;29;20088;-76
2023/05/21 01:43:40;;;;;;;130.88;80.20;;;16.20;99.90;;;;;;4869971;29;20152;-77
2023/05/21 01:46:19;;;;;;;45.42;32.28;;;16.20;99.90;;;;;;4899925;29;20104;-78
2023/05/21 01:49:05;;;;;;;17.77;13.13;;;16.20;99.90;;;;;;4854474;29;20068;-78
2023/05/21 01:52:11;;;;;;;14.18;9.88;;;16.00;99.90;;;;;;4885601;29;20061;-78
2023/05/21 01:54:40;;;;;;;12.65;8.70;;;15.90;99.90;;;;;;4877893;29;20453;-78
2023/05/21 01:57:08;;;;;;;14.07;9.32;;;15.80;99.90;;;;;;4888204;29;20129;-78
2023/05/21 01:59:37;;;;;;;15.00;8.75;;;15.80;99.90;;;;;;4883459;29;20386;-78
2023/05/21 02:02:05;;;;;;;12.40;8.23;;;15.90;99.90;;;;;;4895929;29;20053;-78
2023/05/21 02:04:36;;;;;;;11.40;8.85;;;15.50;99.90;;;;;;4889838;29;20061;-77
2023/05/21 02:07:09;;;;;;;13.57;8.38;;;15.20;99.90;;;;;;4898108;29;20625;-79
2023/05/21 02:10:17;;;;;;;11.98;7.88;;;15.00;99.90;;;;;;4880989;29;20511;-77
2023/05/21 02:17:13;;;;;;;11.65;9.30;;;14.40;99.90;;;;;;4852967;29;20098;-78
2023/05/21 02:19:42;;;;;;;14.27;9.65;;;14.60;99.90;;;;;;4861323;29;20507;-78
2023/05/21 02:22:11;;;;;;;12.68;9.05;;;14.60;99.90;;;;;;4892562;29;20060;-76
2023/05/21 02:24:40;;;;;;;11.98;8.85;;;14.90;99.90;;;;;;4887217;29;20151;-76
2023/05/21 02:27:48;;;;;;;14.75;9.88;;;14.70;99.90;;;;;;4891156;29;20053;-77
2023/05/21 02:33:43;;;;;;;13.63;9.00;;;15.10;99.90;;;;;;4711665;23;20039;-78
2023/05/21 02:48:30;;;;;;;14.75;10.50;;;15.20;99.90;;;;;;4904571;29;20048;-78
2023/05/21 02:51:52;;;;;;;16.92;9.48;;;15.30;99.90;;;;;;5356244;23;20045;-79
2023/05/21 03:04:00;;;;;;;13.70;9.45;;;15.30;99.90;;;;;;4759829;30;20156;-76
2023/05/21 03:06:28;;;;;;;14.68;10.00;;;15.30;99.90;;;;;;4735535;30;20377;-77
2023/05/21 03:08:55;;;;;;;15.23;10.88;;;15.30;99.90;;;;;;4738960;30;20405;-76
2023/05/21 03:11:26;;;;;;;18.85;9.60;;;15.30;99.90;;;;;;4757305;30;20143;-77
2023/05/21 03:14:42;;;;;;;14.48;9.77;;;15.20;99.90;;;;;;4732612;30;20505;-77
2023/05/21 03:17:12;;;;;;;;;;;15.10;99.90;;;;;;4741344;29;20076;-79
2023/05/21 03:19:50;;;;;;;15.07;10.02;;;15.00;99.90;;;;;;4811028;29;19935;-78
2023/05/21 03:22:36;;;;;;;13.40;9.23;;;15.10;99.90;;;;;;4816251;29;20058;-78
2023/05/21 03:25:05;;;;;;;13.00;8.90;;;15.20;99.90;;;;;;4829376;29;20458;-77
2023/05/21 03:27:32;;;;;;;14.25;9.40;;;15.20;99.90;;;;;;4820815;29;20115;-77
2023/05/21 03:30:00;;;;;;;16.13;9.40;;;15.30;99.90;;;;;;4808005;29;20579;-75
2023/05/21 03:32:50;;;;;;;20.08;9.40;;;15.30;99.90;;;;;;4822724;29;20062;-75
2023/05/21 03:35:50;;;;;;;13.48;9.23;;;15.20;99.90;;;;;;4796223;23;20054;-77
2023/05/21 03:38:26;;;;;;;10.07;8.40;;;15.30;99.90;;;;;;4861300;29;20462;-78
2023/05/21 03:41:27;;;;;;;12.05;8.45;;;15.40;99.90;;;;;;5044862;23;20535;-78
2023/05/21 03:47:51;;;;;;;13.40;9.00;;;15.30;99.90;;;;;;4987684;23;20120;-77
2023/05/21 03:51:01;;;;;;;15.18;8.90;;;15.30;99.90;;;;;;5540402;23;20064;-77
2023/05/21 03:53:43;;;;;;;;;;;;;;;;;;;;;
2023/05/21 03:56:35;;;;;;;11.93;8.75;;;15.40;99.90;;;;;;4922892;29;20104;-78
2023/05/21 03:59:13;;;;;;;12.68;9.15;;;15.40;99.90;;;;;;4906897;29;20366;-78
2023/05/21 04:09:40;;;;;;;13.57;8.73;;;15.40;99.90;;;;;;5100121;23;20060;-79
2023/05/21 04:16:18;;;;;;;21.00;9.13;;;15.50;99.90;;;;;;4899452;29;20104;-79
2023/05/21 04:25:43;;;;;;;14.40;9.10;;;15.50;99.90;;;;;;4762712;27;20048;-77
2023/05/21 04:28:10;;;;;;;12.98;9.25;;;15.40;99.90;;;;;;4898832;29;20053;-78
2023/05/21 04:30:38;;;;;;;13.75;9.48;;;15.50;99.90;;;;;;4909442;29;20044;-77
2023/05/21 04:33:06;;;;;;;11.10;8.35;;;15.40;99.90;;;;;;4884838;29;20048;-77
2023/05/21 04:45:12;;;;;;;14.02;9.52;;;15.70;99.90;;;;;;5271042;23;20127;-76
2023/05/21 04:48:23;;;;;;;13.48;9.35;;;15.80;99.90;;;;;;4908474;29;20048;-77
2023/05/21 04:50:55;;;;;;;14.52;9.55;;;15.70;99.90;;;;;;4878370;29;20112;-76
2023/05/21 04:53:24;;;;;;;12.93;8.75;;;15.90;99.90;;;;;;4902129;29;20052;-77
2023/05/21 04:59:26;;;;;;;14.05;9.07;;;16.10;99.90;;;;;;4889624;29;20036;-77
2023/05/21 05:01:54;;;;;;;13.80;9.20;;;16.20;99.90;;;;;;4904485;29;20044;-77
2023/05/21 05:07:46;;;;;;;14.75;9.35;;;16.30;99.90;;;;;;4951672;23;20072;-77
2023/05/21 05:19:19;;;;;;;11.93;8.98;;;16.20;99.90;;;;;;4846042;29;20117;-78
2023/05/21 05:21:48;;;;;;;14.93;9.02;;;16.20;99.90;;;;;;4844786;29;20105;-79
2023/05/21 05:24:28;;;;;;;;;;;;;;;;;;;;;
2023/05/21 05:27:19;;;;;;;13.15;8.85;;;16.30;99.90;;;;;;5263284;23;20056;-78
2023/05/21 05:29:47;;;;;;;12.32;8.82;;;16.30;99.90;;;;;;4896082;29;20044;-80
2023/05/21 05:32:21;;;;;;;12.18;9.32;;;16.00;99.90;;;;;;4893095;29;20049;-78
2023/05/21 05:35:06;;;;;;;18.88;9.88;;;16.20;99.90;;;;;;4897528;29;20052;-79
2023/05/21 05:44:32;;;;;;;16.27;9.48;;;16.70;99.90;;;;;;4870606;29;20133;-78
2023/05/21 05:46:59;;;;;;;14.40;9.05;;;16.90;99.90;;;;;;4863551;29;20409;-78
2023/05/21 05:49:40;;;;;;;14.55;9.90;;;17.00;99.90;;;;;;4871706;29;20049;-77
2023/05/21 05:55:00;;;;;;;13.13;9.73;;;17.20;99.90;;;;;;4900488;29;20060;-80
2023/05/21 05:57:42;;;;;;;14.27;8.65;;;17.20;99.90;;;;;;4907094;29;20051;-78
2023/05/21 06:06:58;;;;;;;105.60;71.18;;;17.50;99.90;;;;;;4718571;27;20423;-77
2023/05/21 06:09:42;;;;;;;47.53;34.38;;;17.70;99.90;;;;;;4836799;29;20521;-78
2023/05/21 06:15:25;;;;;;;38.35;25.77;;;17.50;99.90;;;;;;4903459;29;20064;-78
2023/05/21 06:17:53;;;;;;;76.82;50.20;;;17.70;99.90;;;;;;4913944;23;20678;-78
2023/05/21 06:21:09;;;;;;;;;;;;;;;;;;;;;
2023/05/21 06:24:27;;;;;;;70.72;51.28;;;17.80;99.90;;;;;;4916682;29;20049;-76
2023/05/21 06:27:46;;;;;;;15.25;12.63;;;17.70;99.90;;;;;;4930054;29;20059;-79
2023/05/21 06:53:02;;;;;;;;;;;;;;;;;;;;;
2023/05/21 06:59:18;;;;;;;14.00;9.57;;;18.60;99.90;;;;;;4937412;23;20040;-77
2023/05/21 07:04:40;;;;;;;17.33;10.18;;;18.60;99.90;;;;;;4890043;29;20044;-78
2023/05/21 07:10:42;;;;;;;16.42;9.93;;;18.70;99.90;;;;;;5076684;23;20034;-77
2023/05/21 07:23:47;;;;;;;17.77;9.15;;;19.00;99.90;;;;;;4045183;27;20060;-79
2023/05/21 07:26:14;;;;;;;14.13;8.77;;;18.90;99.90;;;;;;4915086;23;20049;-78
2023/05/21 07:33:00;;;;;;;16.52;8.05;;;18.80;99.90;;;;;;4883276;29;19920;-75
2023/05/21 07:35:28;;;;;;;15.43;8.98;;;18.80;99.90;;;;;;4890203;29;20052;-78
2023/05/21 07:38:34;;;;;;;12.93;9.18;;;18.70;99.90;;;;;;4884122;29;20052;-77
2023/05/21 07:56:47;;;;;;;12.10;8.30;;;19.50;99.90;;;;;;4990368;23;20053;-78
2023/05/21 07:59:21;;;;;;;13.75;9.43;;;19.70;99.90;;;;;;4886041;29;20124;-78
2023/05/21 08:02:37;;;;;;;12.02;9.05;;;19.80;99.90;;;;;;4858009;29;20086;-77
2023/05/21 08:06:36;;;;;;;16.63;8.07;;;20.00;99.90;;;;;;4888124;29;20409;-80
2023/05/21 08:13:24;;;;;;;13.57;7.13;;;20.10;99.90;;;;;;5005911;23;20048;-78
2023/05/21 08:16:36;;;;;;;11.90;6.40;;;20.20;99.90;;;;;;4896251;29;20051;-77
2023/05/21 08:19:26;;;;;;;9.57;6.20;;;20.30;99.90;;;;;;4889118;29;20143;-78
2023/05/21 08:23:12;;;;;;;11.98;6.00;;;20.30;99.90;;;;;;4901804;29;20059;-81
2023/05/21 08:26:10;;;;;;;10.82;6.22;;;20.40;99.90;;;;;;4903045;23;20108;-80
2023/05/21 08:29:12;;;;;;;9.27;5.28;;;20.60;99.90;;;;;;4880033;29;20081;-77
2023/05/21 08:33:17;;;;;;;11.55;4.95;;;20.60;99.90;;;;;;4901968;29;20096;-75
2023/05/21 08:36:30;;;;;;;8.15;5.53;;;20.80;99.90;;;;;;4867431;29;20060;-77
2023/05/21 08:39:12;;;;;;;184.88;114.30;;;21.00;99.90;;;;;;4866971;29;20050;-79
2023/05/21 08:47:36;;;;;;;22.98;15.52;;;20.90;99.90;;;;;;5103392;23;20392;-76
2023/05/21 08:50:12;;;;;;;98.28;63.55;;;20.90;99.90;;;;;;4886699;29;20054;-76
2023/05/21 08:52:40;;;;;;;414.83;274.35;;;21.10;99.90;;;;;;4914470;29;20054;-74
2023/05/21 09:02:31;;;;;;;;;;;;;;;;;;;;;
2023/05/21 09:19:37;;;;;;;11.40;5.43;;;21.40;99.40;;;;;;5999415;23;19922;31
2023/05/21 09:59:02;;;;;;;10.02;4.47;;;22.30;87.80;;;;;;4835328;29;20042;-83
2023/05/21 10:05:17;;;;;;;45.47;32.92;;;22.50;87.70;;;;;;4876129;29;20057;-79
2023/05/21 10:24:38;;;;;;;7.00;3.92;;;22.50;82.20;;;;;;4822609;29;20065;-82
2023/05/21 10:43:47;;;;;;;40.28;27.50;;;23.40;75.90;;;;;;5506057;23;20040;-79
2023/05/21 11:10:44;;;;;;;11.35;4.90;;;23.70;74.10;;;;;;4902840;29;20124;-79
2023/05/21 11:16:50;;;;;;;13.32;3.78;;;23.70;71.40;;;;;;4917948;23;20516;-77
2023/05/21 11:19:46;;;;;;;7.90;4.82;;;23.70;72.50;;;;;;4841079;29;20052;-76
2023/05/21 11:22:42;;;;;;;6.20;3.70;;;24.10;71.30;;;;;;4886235;29;20131;-75
2023/05/21 11:25:11;;;;;;;9.77;4.40;;;24.40;73.20;;;;;;4890717;29;20453;-75
2023/05/21 11:27:41;;;;;;;8.10;4.05;;;24.40;72.70;;;;;;4923057;29;20048;-79
2023/05/21 11:31:03;;;;;;;;;;;24.30;71.50;;;;;;4933693;29;20060;-78
2023/05/21 11:41:26;;;;;;;8.98;3.63;;;23.10;72.90;;;;;;4891672;29;20048;-77
2023/05/21 11:45:06;;;;;;;9.10;3.65;;;22.90;72.40;;;;;;4872347;29;20429;-77
2023/05/21 11:48:17;;;;;;;6.65;3.78;;;22.90;73.60;;;;;;4942702;23;20064;-81
2023/05/21 11:51:07;;;;;;;8.23;4.38;;;22.90;73.40;;;;;;4882380;29;20063;-79
2023/05/21 11:54:42;;;;;;;;;;;;;;;;;;;;;
2023/05/21 11:57:32;;;;;;;6.13;3.83;;;22.60;74.20;;;;;;4887979;29;20113;-79
2023/05/21 12:00:12;;;;;;;11.23;4.60;;;22.60;74.70;;;;;;4890451;29;20053;-80
2023/05/21 12:03:11;;;;;;;7.72;3.83;;;22.40;75.20;;;;;;4907275;29;20061;-77
2023/05/21 12:06:52;;;;;;;6.82;3.63;;;22.30;74.50;;;;;;4890916;29;20048;-76
2023/05/21 12:10:13;;;;;;;7.32;4.00;;;22.20;75.50;;;;;;4810662;29;20162;-76
2023/05/21 12:12:47;;;;;;;6.85;3.78;;;22.20;75.70;;;;;;4809734;29;20125;-83
2023/05/21 12:16:04;;;;;;;7.85;4.30;;;22.10;79.00;;;;;;4809255;29;20058;-75
2023/05/21 12:33:04;;;;;;;7.72;4.70;;;22.00;81.00;;;;;;696153;23;20369;-77
2023/05/21 12:35:53;;;;;;;10.13;4.65;;;21.90;80.40;;;;;;4907091;29;20053;-78
2023/05/21 12:47:01;;;;;;;11.68;5.53;;;21.80;78.00;;;;;;4892430;29;20056;-78
2023/05/21 12:50:12;;;;;;;8.93;4.25;;;21.20;91.00;;;;;;4886461;29;20063;-77
2023/05/21 12:53:11;;;;;;;5.88;4.07;;;20.70;93.00;;;;;;4873756;29;20129;-75
2023/05/21 12:56:26;;;;;;;9.13;4.72;;;20.30;95.30;;;;;;4875803;29;20545;-75
2023/05/21 12:59:38;;;;;;;12.27;5.00;;;20.30;97.40;;;;;;4880833;29;20061;-77
2023/05/21 13:07:50;;;;;;;11.38;4.63;;;20.40;99.90;;;;;;4906692;29;20055;-75
2023/05/21 13:11:22;;;;;;;8.43;4.97;;;20.90;99.90;;;;;;4990183;23;20119;-75
2023/05/21 13:14:22;;;;;;;7.15;4.70;;;21.50;99.90;;;;;;4927390;29;20393;-77
2023/05/21 13:17:45;;;;;;;8.82;4.45;;;21.60;99.40;;;;;;4929042;29;20062;-79
2023/05/21 13:20:43;;;;;;;11.00;4.68;;;21.60;99.70;;;;;;5026862;23;20076;-76
2023/05/21 13:23:24;;;;;;;13.10;5.28;;;21.20;99.20;;;;;;4256241;24;18811530;-78
2023/05/21 13:25:59;;;;;;;9.02;4.53;;;21.00;99.90;;;;;;4893200;29;20101;-75
2023/05/21 13:28:56;;;;;;;8.20;4.47;;;21.00;98.30;;;;;;4884234;29;20077;-77
2023/05/21 13:31:29;;;;;;;8.85;4.30;;;20.90;98.60;;;;;;4937893;23;20052;-75
2023/05/21 13:34:52;;;;;;;7.55;4.05;;;21.00;97.30;;;;;;4881630;29;20703;-78
2023/05/21 13:37:31;;;;;;;9.27;4.38;;;21.20;97.20;;;;;;4903107;29;20078;-76
2023/05/21 13:40:43;;;;;;;7.72;4.47;;;21.20;96.40;;;;;;4870604;29;20041;-78
2023/05/21 13:43:15;;;;;;;8.40;4.82;;;21.30;96.00;;;;;;4915970;23;20139;-77
2023/05/21 13:45:56;;;;;;;7.07;3.83;;;21.30;96.00;;;;;;4899410;29;20159;-81
2023/05/21 13:48:44;;;;;;;8.38;4.70;;;21.50;95.90;;;;;;4905147;29;20068;-79
2023/05/21 13:51:39;;;;;;;8.18;4.28;;;21.70;95.90;;;;;;4887294;29;20033;-74
2023/05/21 13:54:35;;;;;;;8.88;4.35;;;21.80;95.10;;;;;;4899769;29;20064;-78
2023/05/21 13:58:07;;;;;;;6.80;4.53;;;21.80;94.00;;;;;;4893370;29;20056;-77
2023/05/21 14:00:58;;;;;;;7.93;4.22;;;22.30;92.90;;;;;;4881779;29;20116;-79
2023/05/21 14:03:57;;;;;;;7.20;4.07;;;22.70;92.20;;;;;;4874765;29;20052;-78
2023/05/21 14:07:03;;;;;;;7.15;3.80;;;23.10;90.80;;;;;;4880457;29;20096;-77
2023/05/21 14:13:28;;;;;;;9.93;4.82;;;23.10;87.50;;;;;;4085210;27;20053;-78
2023/05/21 14:17:27;;;;;;;11.77;4.75;;;23.20;85.30;;;;;;4857676;29;20045;-78
2023/05/21 14:21:05;;;;;;;7.22;3.97;;;23.50;84.20;;;;;;4876298;29;20053;-78
2023/05/21 14:24:41;;;;;;;22.50;16.98;;;23.60;83.30;;;;;;4858531;29;20056;-78
2023/05/21 14:27:56;;;;;;;101.55;67.25;;;23.80;83.50;;;;;;4911961;23;20040;-76
2023/05/21 14:36:25;;;;;;;9.52;4.25;;;23.60;83.60;;;;;;1340521;26;20040;-78
2023/05/21 14:44:50;;;;;;;30.40;22.13;;;23.00;87.40;;;;;;4922019;29;20503;-78
2023/05/21 14:48:12;;;;;;;16.42;9.07;;;22.80;88.20;;;;;;4881936;29;20059;-76
2023/05/21 14:51:48;;;;;;;;;;;;;;;;;;;;;
2023/05/21 14:55:21;;;;;;;;;;;;;;;;;;;;;
2023/05/21 14:58:24;;;;;;;11.65;5.30;;;22.60;90.10;;;;;;4866778;29;20061;-78
2023/05/21 15:00:51;;;;;;;23.13;14.35;;;22.60;91.50;;;;;;5257143;23;20048;-79
2023/05/21 15:21:00;;;;;;;21.23;15.85;;;22.10;92.50;;;;;;4991254;23;20400;-80
2023/05/21 15:24:59;;;;;;;;;;;;;;;;;;;;;
2023/05/21 15:34:50;;;;;;;12.35;5.03;;;22.00;94.00;;;;;;1324538;27;20069;-80
2023/05/21 15:37:51;;;;;;;8.45;4.75;;;21.70;94.00;;;;;;4904103;29;20084;-85
2023/05/21 15:41:57;;;;;;;;;;;;;;;;;;;;;
2023/05/21 15:45:03;;;;;;;8.82;5.32;;;21.30;97.60;;;;;;4854319;29;20087;-79
2023/05/21 15:47:53;;;;;;;10.80;5.05;;;21.30;99.50;;;;;;4800052;29;20069;-79
2023/05/21 15:50:58;;;;;;;10.07;4.72;;;21.20;99.90;;;;;;4986975;23;20077;-78
2023/05/21 15:53:57;;;;;;;8.93;4.93;;;21.10;99.50;;;;;;4915211;29;20064;-78
2023/05/21 15:56:50;;;;;;;10.38;5.20;;;21.20;99.90;;;;;;4901326;29;20065;-77
2023/05/21 15:59:40;;;;;;;8.57;5.30;;;21.10;99.40;;;;;;4917192;29;20048;-81
2023/05/21 16:05:21;;;;;;;8.38;5.25;;;21.10;99.90;;;;;;4911281;29;20131;-77
2023/05/21 16:08:27;;;;;;;10.70;4.40;;;21.10;99.90;;;;;;4890894;29;20084;-77
2023/05/21 16:11:08;;;;;;;11.63;5.85;;;21.10;99.90;;;;;;4889896;29;20120;-78
2023/05/21 16:13:51;;;;;;;7.53;4.60;;;21.10;99.30;;;;;;4931137;23;20052;-78
2023/05/21 16:16:45;;;;;;;7.88;4.70;;;21.10;98.90;;;;;;4811293;29;20069;-80
2023/05/21 16:22:26;;;;;;;13.00;8.55;;;20.90;97.60;;;;;;5291413;23;20039;-78
2023/05/21 16:36:10;;;;;;;32.88;20.70;;;20.80;99.70;;;;;;4549553;27;20036;-77
2023/05/21 16:39:10;;;;;;;11.65;7.68;;;20.90;99.70;;;;;;4900851;29;20148;-78
2023/05/21 16:42:03;;;;;;;10.98;5.28;;;20.70;99.90;;;;;;5226196;23;20054;-80
2023/05/21 16:48:54;;;;;;;10.93;5.80;;;20.70;99.90;;;;;;4907073;29;20098;-77
2023/05/21 16:52:38;;;;;;;10.48;5.22;;;20.50;99.90;;;;;;4911150;29;20087;-77
2023/05/21 16:56:09;;;;;;;12.13;6.20;;;20.60;99.90;;;;;;5435254;23;20023;-79
2023/05/21 16:59:22;;;;;;;13.23;6.28;;;20.60;99.90;;;;;;4777625;30;20078;-82
2023/05/21 17:02:32;;;;;;;13.23;5.57;;;20.60;99.90;;;;;;4846016;29;20528;-80
2023/05/21 17:06:35;;;;;;;;;;;20.60;99.90;;;;;;4774608;29;20038;-79
2023/05/21 17:09:48;;;;;;;11.95;6.55;;;20.50;99.90;;;;;;4833256;29;19928;-79
2023/05/21 17:16:50;;;;;;;13.95;6.05;;;20.40;99.90;;;;;;4795163;29;20035;-77
2023/05/21 17:35:23;;;;;;;12.98;5.70;;;20.30;99.90;;;;;;4916582;29;20052;-77
2023/05/21 17:45:04;;;;;;;9.77;5.53;;;20.20;99.90;;;;;;4978942;23;20056;-78
2023/05/21 17:51:15;;;;;;;9.38;5.22;;;20.10;99.90;;;;;;5300761;23;20023;-80
2023/05/21 18:04:39;;;;;;;11.00;6.13;;;20.10;99.90;;;;;;5135388;23;20087;-79
2023/05/21 18:07:50;;;;;;;9.00;5.63;;;20.10;99.90;;;;;;4900368;29;20067;-78
2023/05/21 18:11:27;;;;;;;9.32;5.95;;;20.00;99.90;;;;;;4918475;29;20079;-78
2023/05/21 18:35:38;;;;;;;13.40;6.95;;;19.90;99.90;;;;;;4833365;29;20046;-76
2023/05/21 18:40:06;;;;;;;;;;;;;;;;;;;;;
2023/05/21 18:43:24;;;;;;;18.60;12.20;;;19.80;99.90;;;;;;4822915;29;20080;-81
2023/05/21 18:46:26;;;;;;;14.57;9.02;;;19.70;99.90;;;;;;4836809;29;20062;-79
2023/05/21 19:02:03;;;;;;;12.68;6.97;;;19.70;99.90;;;;;;1761875;23;20061;-79
2023/05/21 19:08:33;;;;;;;142.68;92.95;;;19.70;99.90;;;;;;5477011;23;20068;-76
2023/05/21 19:11:55;;;;;;;73.28;47.88;;;19.70;99.90;;;;;;5206253;23;20043;-78
2023/05/21 19:14:43;;;;;;;26.45;15.50;;;19.70;99.90;;;;;;4885498;29;20503;-77
2023/05/21 19:21:06;;;;;;;26.50;16.55;;;19.60;99.90;;;;;;4883552;29;20065;-79
2023/05/21 19:23:36;;;;;;;46.22;31.10;;;19.60;99.90;;;;;;4869135;29;20057;-77
2023/05/21 19:26:28;;;;;;;60.90;38.25;;;19.50;99.90;;;;;;4901122;29;20526;-77
2023/05/21 19:29:25;;;;;;;71.70;46.55;;;19.50;99.90;;;;;;4871800;29;20068;-76
2023/05/21 19:41:17;;;;;;;19.20;10.85;;;19.50;99.90;;;;;;4880091;29;20102;-81
2023/05/21 19:44:51;;;;;;;19.42;11.02;;;19.40;99.90;;;;;;5149985;23;20195;-80
2023/05/21 20:03:38;;;;;;;19.75;10.65;;;19.30;99.90;;;;;;4799103;29;20061;-83
2023/05/21 20:12:38;;;;;;;21.98;10.70;;;18.90;99.90;;;;;;4963037;23;20057;-79
2023/05/21 20:23:21;;;;;;;21.30;11.20;;;18.90;99.90;;;;;;5147990;23;20432;-79
2023/05/21 20:26:14;;;;;;;19.63;10.98;;;18.80;99.90;;;;;;4893983;29;20045;-77
2023/05/21 20:28:51;;;;;;;22.80;11.13;;;18.90;99.90;;;;;;4889852;29;20053;-78
2023/05/21 20:31:57;;;;;;;19.10;11.73;;;18.80;99.90;;;;;;4938422;23;20048;-81
2023/05/21 20:35:09;;;;;;;16.73;10.40;;;18.70;99.90;;;;;;4826190;29;20064;-80
2023/05/21 20:38:59;;;;;;;18.35;11.02;;;18.80;99.90;;;;;;4895228;29;20104;-78
2023/05/21 21:55:45;;;;;;;29.45;15.68;;;18.10;99.90;;;;;;5422193;23;20272;-78
2023/05/21 22:05:37;;;;;;;12.35;7.63;;;17.90;99.90;;;;;;5912061;23;20038;-82
2023/05/21 23:00:22;;;;;;;11.02;8.00;;;17.40;99.90;;;;;;4877674;29;20051;-78
2023/05/21 23:03:10;;;;;;;120.85;69.22;;;17.30;99.90;;;;;;4891337;29;20052;-81
2023/05/21 23:05:43;;;;;;;;;;;17.40;99.90;;;;;;4869932;29;20160;-80
2023/05/21 23:12:12;;;;;;;18.40;11.05;;;17.60;99.90;;;;;;5483517;23;20024;-82
2023/05/21 23:34:40;;;;;;;15.18;7.35;;;17.30;99.90;;;;;;5096612;23;20042;-86
2023/05/21 23:37:24;;;;;;;12.75;7.75;;;17.30;99.90;;;;;;4932625;29;20052;-85
2023/05/21 23:43:01;;;;;;;13.27;8.25;;;16.80;99.90;;;;;;5098616;23;20076;-85
2023/05/21 23:45:30;;;;;;;15.50;8.20;;;17.00;99.90;;;;;;5080508;23;20052;-79
2023/05/21 23:56:51;;;;;;;17.58;8.25;;;17.00;99.90;;;;;;4865601;29;20056;-76
